Terminal Aerodrome Forecast
Issued by NWS Memphis, TN

Home | Current Version | Previous Version | Text Only | Print | Product List | Glossary On
Versions: 1 2 3 4 5 6 7 8 9 10 11 12
960
FTUS44 KMEG 140537
TAFMKL
TAF
KMKL 140537Z 1406/1506 09005KT P6SM BKN080 OVC250
     FM141100 11008KT P6SM OVC045
     FM141600 13010KT P6SM VCSH OVC035
     FM142000 15007KT 6SM -RA OVC025
     FM150200 VRB03KT 4SM -RA SCT005 OVC015=

USA.gov is the U.S. government's official web portal to all federal, state and local government web resources and services.